Time;durP1;ratioP1;P1;durP2;ratioP2;P2;SDS_P1;SDS_P2;PMS_P1;PMS_P2;Temp;Humidity;BMP_temperature;BMP_pressure;BME280_temperature;BME280_humidity;BME280_pressure;Samples;Min_cycle;Max_cycle;Signal;HPM_P1;HPM_P2
2021/12/01 00:01:12;;;;;;;31.60;23.10;;;3.40;1.00;;;;;;5072790;28;20731;-71
2021/12/01 00:03:41;;;;;;;34.63;24.23;;;3.40;1.00;;;;;;5073024;28;20206;-71
2021/12/01 00:06:09;;;;;;;25.50;20.20;;;3.50;1.00;;;;;;5072995;28;20226;-71
2021/12/01 00:08:36;;;;;;;29.13;21.50;;;3.60;1.00;;;;;;5072983;28;20252;-71
2021/12/01 00:11:03;;;;;;;28.43;21.93;;;3.50;1.00;;;;;;5073055;28;20209;-70
2021/12/01 00:13:33;;;;;;;29.03;21.33;;;3.40;1.00;;;;;;5073244;28;20206;-70
2021/12/01 00:16:01;;;;;;;36.00;24.97;;;3.20;1.00;;;;;;5072388;28;20702;-70
2021/12/01 00:18:28;;;;;;;33.30;22.67;;;3.10;1.00;;;;;;5072856;28;20206;-70
2021/12/01 00:20:57;;;;;;;31.20;21.87;;;3.00;1.00;;;;;;5072674;28;20259;-70
2021/12/01 00:23:24;;;;;;;33.63;23.40;;;3.00;1.00;;;;;;5072561;28;20210;-70
2021/12/01 00:25:52;;;;;;;29.23;22.23;;;3.20;1.00;;;;;;5072254;28;20210;-70
2021/12/01 00:28:19;;;;;;;32.07;21.83;;;3.30;1.00;;;;;;5072616;28;20210;-70
2021/12/01 00:30:47;;;;;;;33.23;22.70;;;3.30;1.00;;;;;;5072407;28;20210;-70
2021/12/01 00:33:17;;;;;;;31.00;23.83;;;3.30;1.00;;;;;;5072686;28;20713;-70
2021/12/01 00:35:45;;;;;;;28.97;21.83;;;3.40;1.00;;;;;;5072021;28;20202;-70
2021/12/01 00:38:13;;;;;;;30.83;22.60;;;3.30;1.00;;;;;;5072366;28;20211;-70
2021/12/01 00:40:40;;;;;;;27.93;19.57;;;3.30;1.00;;;;;;5071773;28;20232;-71
2021/12/01 00:43:15;;;;;;;32.33;21.70;;;3.30;1.00;;;;;;5072637;28;20275;-70
2021/12/01 00:45:48;;;;;;;29.70;19.33;;;3.40;1.00;;;;;;5071678;28;20301;-71
2021/12/01 00:48:16;;;;;;;34.00;21.10;;;3.30;1.00;;;;;;5072206;28;20681;-70
2021/12/01 00:50:43;;;;;;;29.57;20.60;;;3.20;1.00;;;;;;5071912;28;20203;-71
2021/12/01 00:53:11;;;;;;;24.87;19.93;;;3.30;1.00;;;;;;5071806;28;20214;-71
2021/12/01 00:55:42;;;;;;;28.73;19.90;;;3.50;1.00;;;;;;5071866;28;20213;-71
2021/12/01 00:58:11;;;;;;;28.83;21.50;;;3.30;1.00;;;;;;5072295;28;20212;-70
2021/12/01 01:00:39;;;;;;;27.13;22.63;;;3.40;1.00;;;;;;5071942;28;20649;-70
2021/12/01 01:03:08;;;;;;;25.43;18.10;;;3.30;1.00;;;;;;5071902;28;20210;-70
2021/12/01 01:05:36;;;;;;;24.73;17.13;;;3.20;1.00;;;;;;5071904;28;20210;-70
2021/12/01 01:08:03;;;;;;;24.93;19.13;;;3.20;1.00;;;;;;5071908;28;20271;-70
2021/12/01 01:10:35;;;;;;;29.23;18.97;;;3.30;1.00;;;;;;5072022;28;20256;-69
2021/12/01 01:18:41;;;;;;;27.90;18.80;;;3.70;1.00;;;;;;5071126;28;20209;-72
2021/12/01 01:21:08;;;;;;;30.37;19.97;;;3.80;1.00;;;;;;5071415;28;20210;-70
2021/12/01 01:23:36;;;;;;;26.10;18.23;;;3.80;1.00;;;;;;5071496;28;20206;-70
2021/12/01 01:26:06;;;;;;;25.40;17.83;;;3.60;1.00;;;;;;5071984;28;20260;-70
2021/12/01 01:28:35;;;;;;;23.53;17.20;;;3.50;1.00;;;;;;5070951;28;20206;-70
2021/12/01 01:31:03;;;;;;;26.17;18.87;;;3.50;1.00;;;;;;5071864;28;20271;-69
2021/12/01 01:33:30;;;;;;;27.47;17.80;;;3.40;1.00;;;;;;5071430;28;20738;-68
2021/12/01 01:35:57;;;;;;;28.73;18.13;;;3.30;1.00;;;;;;5070723;28;20783;-68
2021/12/01 01:38:24;;;;;;;22.13;15.53;;;3.30;1.00;;;;;;5071303;28;20704;-69
2021/12/01 01:40:51;;;;;;;26.07;17.73;;;3.30;1.00;;;;;;5070808;28;20256;-68
2021/12/01 01:43:18;;;;;;;26.13;17.23;;;3.40;1.00;;;;;;5071097;28;20210;-68
2021/12/01 01:45:46;;;;;;;27.37;17.37;;;3.30;1.00;;;;;;5070481;28;20248;-69
2021/12/01 01:48:15;;;;;;;24.00;16.67;;;3.20;1.00;;;;;;5071017;28;20275;-69
2021/12/01 01:50:43;;;;;;;22.93;16.73;;;3.20;1.00;;;;;;5070338;28;20210;-69
2021/12/01 01:53:14;;;;;;;24.47;19.07;;;3.30;1.00;;;;;;5071326;28;20275;-69
2021/12/01 01:55:45;;;;;;;23.70;15.30;;;3.30;1.00;;;;;;5070307;28;20238;-69
2021/12/01 01:58:13;;;;;;;22.10;16.10;;;3.30;1.00;;;;;;5071189;28;20267;-69
2021/12/01 02:00:45;;;;;;;20.17;16.67;;;3.30;1.00;;;;;;5070776;28;20210;-69
2021/12/01 02:03:14;;;;;;;23.73;16.10;;;3.50;1.00;;;;;;5071011;28;20293;-69
2021/12/01 02:05:42;;;;;;;20.23;14.83;;;3.50;1.00;;;;;;5070280;28;20242;-69
2021/12/01 02:08:16;;;;;;;19.73;14.23;;;3.40;1.00;;;;;;5070441;28;20252;-70
2021/12/01 02:10:46;;;;;;;22.33;16.90;;;3.40;1.00;;;;;;5070346;28;20249;-69
2021/12/01 02:13:13;;;;;;;21.07;15.10;;;3.60;1.00;;;;;;5070297;28;20217;-70
2021/12/01 02:15:40;;;;;;;18.80;15.50;;;3.60;1.00;;;;;;5070479;28;20252;-70
2021/12/01 02:18:07;;;;;;;21.90;15.43;;;3.80;1.00;;;;;;5070748;28;20214;-71
2021/12/01 02:20:36;;;;;;;21.03;15.33;;;3.80;1.00;;;;;;5070376;28;20276;-71
2021/12/01 02:23:03;;;;;;;21.57;15.60;;;3.60;1.00;;;;;;5071109;28;20210;-70
2021/12/01 02:25:30;;;;;;;24.13;16.77;;;3.60;1.00;;;;;;5070616;28;20737;-71
2021/12/01 02:27:57;;;;;;;23.37;16.37;;;3.60;1.00;;;;;;5070348;28;20279;-71
2021/12/01 02:30:25;;;;;;;19.83;14.90;;;3.60;1.00;;;;;;5070235;28;20271;-70
2021/12/01 02:32:52;;;;;;;19.60;15.27;;;3.60;1.00;;;;;;5070239;28;20213;-69
2021/12/01 02:35:19;;;;;;;20.50;15.73;;;3.70;1.00;;;;;;5069945;28;20210;-69
2021/12/01 02:37:48;;;;;;;19.80;14.93;;;3.70;1.00;;;;;;5070407;28;20206;-70
2021/12/01 02:40:15;;;;;;;22.40;15.20;;;3.70;1.00;;;;;;5070173;28;20264;-72
2021/12/01 02:42:42;;;;;;;18.43;14.00;;;3.80;1.00;;;;;;5069649;28;20624;-71
2021/12/01 02:45:09;;;;;;;21.53;15.13;;;3.90;1.00;;;;;;5070457;28;20210;-70
2021/12/01 02:47:36;;;;;;;18.07;14.53;;;3.90;1.00;;;;;;5069954;28;20218;-71
2021/12/01 02:50:05;;;;;;;17.70;13.47;;;3.90;1.00;;;;;;5067979;28;20210;-70
2021/12/01 02:52:35;;;;;;;17.60;13.57;;;4.00;1.00;;;;;;5070500;28;20212;-70
2021/12/01 02:55:07;;;;;;;17.90;12.97;;;4.00;1.00;;;;;;5070713;28;20213;-71
2021/12/01 02:57:47;;;;;;;15.23;12.10;;;4.00;1.00;;;;;;5069999;28;20202;-70
2021/12/01 03:00:16;;;;;;;17.87;12.53;;;3.90;1.00;;;;;;5069933;28;20746;-69
2021/12/01 03:02:43;;;;;;;18.10;13.80;;;3.90;1.00;;;;;;5069889;28;20202;-69
2021/12/01 03:05:10;;;;;;;19.87;13.87;;;3.90;1.00;;;;;;5069892;28;20746;-69
2021/12/01 03:07:38;;;;;;;17.17;12.70;;;4.10;1.00;;;;;;5069716;28;20230;-70
2021/12/01 03:10:08;;;;;;;17.00;12.17;;;4.20;1.00;;;;;;5070147;28;20255;-69
2021/12/01 03:12:37;;;;;;;15.83;11.10;;;4.20;1.00;;;;;;5070138;28;20202;-70
2021/12/01 03:15:05;;;;;;;15.77;10.43;;;4.30;1.00;;;;;;5070256;28;20210;-70
2021/12/01 03:17:33;;;;;;;16.87;11.73;;;4.30;1.00;;;;;;5069879;28;20206;-70
2021/12/01 03:20:00;;;;;;;15.03;10.27;;;4.40;1.00;;;;;;5070253;28;20238;-70
2021/12/01 03:22:28;;;;;;;12.57;9.73;;;4.40;1.00;;;;;;5069881;28;20214;-70
2021/12/01 03:24:55;;;;;;;13.93;11.90;;;4.50;1.00;;;;;;5069732;28;20210;-70
2021/12/01 03:27:24;;;;;;;10.83;9.57;;;4.50;1.00;;;;;;5069737;28;20233;-70
2021/12/01 03:29:51;;;;;;;13.50;9.70;;;4.40;1.00;;;;;;5069690;28;20658;-69
2021/12/01 03:32:20;;;;;;;12.40;9.23;;;4.40;1.00;;;;;;5069964;28;20210;-70
2021/12/01 03:34:47;;;;;;;14.37;10.17;;;4.40;1.00;;;;;;5069381;28;20298;-70
2021/12/01 03:37:14;;;;;;;14.67;9.57;;;4.40;1.00;;;;;;5070139;28;20556;-70
2021/12/01 03:39:41;;;;;;;12.20;9.10;;;4.40;1.00;;;;;;5069337;28;20674;-70
2021/12/01 03:42:08;;;;;;;11.20;7.83;;;4.40;1.00;;;;;;5069809;28;20210;-69
2021/12/01 03:44:37;;;;;;;11.63;9.13;;;4.40;1.00;;;;;;5069994;28;20222;-70
2021/12/01 03:47:04;;;;;;;9.80;8.40;;;4.40;1.00;;;;;;5069553;28;20262;-69
2021/12/01 03:49:31;;;;;;;13.10;7.43;;;4.40;1.00;;;;;;5070067;28;20213;-69
2021/12/01 03:51:58;;;;;;;12.80;7.83;;;4.40;1.00;;;;;;5071735;28;20210;-69
2021/12/01 03:54:26;;;;;;;11.60;8.83;;;4.50;1.00;;;;;;5073254;28;20256;-69
2021/12/01 03:56:53;;;;;;;10.37;7.53;;;4.60;1.00;;;;;;5072705;28;20214;-69
2021/12/01 03:59:20;;;;;;;13.60;8.87;;;4.60;1.00;;;;;;5073477;28;20202;-70
2021/12/01 04:01:48;;;;;;;10.37;8.67;;;4.50;1.00;;;;;;5072647;28;20214;-69
2021/12/01 04:04:15;;;;;;;10.10;7.30;;;4.60;1.00;;;;;;5073412;28;20271;-69
2021/12/01 04:06:42;;;;;;;9.27;6.43;;;4.60;1.00;;;;;;5072758;28;20206;-69
2021/12/01 04:09:09;;;;;;;6.93;6.27;;;4.60;1.00;;;;;;5072975;28;20259;-70
2021/12/01 04:11:37;;;;;;;10.37;6.90;;;4.70;99.90;;;;;;5073178;28;20235;-70
2021/12/01 04:14:04;;;;;;;8.10;6.57;;;4.80;99.90;;;;;;5073244;28;20670;-70
2021/12/01 04:16:31;;;;;;;9.97;7.17;;;4.70;99.90;;;;;;5073300;28;20256;-71
2021/12/01 04:19:00;;;;;;;11.10;6.93;;;4.70;99.90;;;;;;5072284;28;20251;-71
2021/12/01 04:21:27;;;;;;;10.50;7.27;;;4.80;99.90;;;;;;5072830;28;20206;-71
2021/12/01 04:23:55;;;;;;;9.20;7.03;;;4.80;99.90;;;;;;5072398;28;20661;-71
2021/12/01 04:26:24;;;;;;;9.53;6.80;;;4.80;99.90;;;;;;5072872;28;20218;-71
2021/12/01 04:28:52;;;;;;;10.57;7.20;;;4.80;99.90;;;;;;5071988;28;20237;-71
2021/12/01 04:31:19;;;;;;;9.50;6.97;;;4.80;99.90;;;;;;5072670;28;20210;-71
2021/12/01 04:33:46;;;;;;;10.20;7.87;;;4.80;99.90;;;;;;5072021;28;20209;-72
2021/12/01 04:36:16;;;;;;;8.10;6.70;;;4.80;99.90;;;;;;5072588;28;20203;-70
2021/12/01 04:38:43;;;;;;;8.10;6.67;;;4.70;99.90;;;;;;5072396;28;20260;-70
2021/12/01 04:41:13;;;;;;;11.33;6.53;;;4.70;99.90;;;;;;5072397;28;20620;-70
2021/12/01 04:43:40;;;;;;;9.10;6.63;;;4.70;99.90;;;;;;5072144;28;20218;-71
2021/12/01 04:46:08;;;;;;;8.93;6.60;;;4.80;99.90;;;;;;5071979;28;20739;-68
2021/12/01 04:48:35;;;;;;;8.33;5.80;;;4.70;99.90;;;;;;5072389;28;20265;-68
2021/12/01 04:51:02;;;;;;;8.07;6.60;;;4.80;99.90;;;;;;5072299;28;20206;-67
2021/12/01 04:53:32;;;;;;;11.17;7.67;;;4.80;99.90;;;;;;5072786;28;20215;-67
2021/12/01 04:55:59;;;;;;;8.97;5.90;;;4.80;99.90;;;;;;5071834;28;20206;-67
2021/12/01 04:58:27;;;;;;;9.03;6.20;;;4.80;99.90;;;;;;5072056;28;20198;-67
2021/12/01 05:00:55;;;;;;;9.47;7.03;;;4.90;99.90;;;;;;5071772;28;20218;-68
2021/12/01 05:03:21;;;;;;;6.77;6.07;;;5.00;99.90;;;;;;5071690;28;20210;-68
2021/12/01 05:05:48;;;;;;;9.17;6.77;;;4.90;99.90;;;;;;5071926;28;20251;-68
2021/12/01 05:08:16;;;;;;;8.00;7.03;;;4.90;99.90;;;;;;5071631;28;20226;-68
2021/12/01 05:10:44;;;;;;;10.40;7.57;;;5.00;99.90;;;;;;5071739;28;20206;-68
2021/12/01 05:13:11;;;;;;;11.60;6.20;;;5.00;99.90;;;;;;5071704;28;20270;-68
2021/12/01 05:15:38;;;;;;;9.97;6.13;;;5.00;99.90;;;;;;5070997;28;20253;-69
2021/12/01 05:18:05;;;;;;;7.90;6.17;;;4.90;99.90;;;;;;5071780;28;20216;-68
2021/12/01 05:20:32;;;;;;;8.23;6.00;;;4.90;99.90;;;;;;5071718;28;20228;-68
2021/12/01 05:22:59;;;;;;;9.83;5.93;;;4.80;99.90;;;;;;5071689;28;20215;-69
2021/12/01 05:25:26;;;;;;;8.73;6.13;;;4.90;1.00;;;;;;5071629;28;20327;-68
2021/12/01 05:27:56;;;;;;;8.80;6.50;;;4.90;99.90;;;;;;5070948;28;20234;-69
2021/12/01 05:30:23;;;;;;;9.43;7.43;;;4.90;1.00;;;;;;5071167;28;20584;-68
2021/12/01 05:32:50;;;;;;;9.87;6.73;;;4.90;1.00;;;;;;5071357;28;20264;-66
2021/12/01 05:35:17;;;;;;;7.83;6.03;;;4.90;1.00;;;;;;5071566;28;20210;-65
2021/12/01 05:37:44;;;;;;;6.73;5.77;;;4.90;1.00;;;;;;5070902;28;20210;-66
2021/12/01 05:40:12;;;;;;;7.70;6.43;;;5.00;1.00;;;;;;5071571;28;20263;-66
2021/12/01 05:42:41;;;;;;;9.33;6.47;;;5.00;99.90;;;;;;5069143;28;20206;-67
2021/12/01 05:45:10;;;;;;;8.17;4.57;;;5.00;99.90;;;;;;5086029;28;20209;-66
2021/12/01 05:47:37;;;;;;;9.17;5.03;;;5.10;99.90;;;;;;5080846;28;20234;-66
2021/12/01 05:50:05;;;;;;;7.57;5.20;;;5.10;1.00;;;;;;5087077;28;20209;-66
2021/12/01 05:52:32;;;;;;;5.40;3.77;;;5.20;99.90;;;;;;5088180;28;20282;-66
2021/12/01 05:54:59;;;;;;;5.60;4.33;;;5.20;99.90;;;;;;5086490;28;20266;-67
2021/12/01 05:57:26;;;;;;;5.00;4.50;;;5.20;99.90;;;;;;5079925;28;20272;-66
2021/12/01 05:59:53;;;;;;;5.17;3.97;;;5.30;99.90;;;;;;5071306;28;20213;-67
2021/12/01 06:02:21;;;;;;;7.50;4.07;;;5.30;99.90;;;;;;5071847;28;20260;-66
2021/12/01 06:04:48;;;;;;;4.70;3.67;;;5.30;99.90;;;;;;5073042;28;20214;-69
2021/12/01 06:07:16;;;;;;;6.70;3.77;;;5.30;99.90;;;;;;5072455;28;20208;-68
2021/12/01 06:09:43;;;;;;;5.80;4.03;;;5.30;99.90;;;;;;5072176;28;20656;-67
2021/12/01 06:12:12;;;;;;;5.63;3.90;;;5.40;99.90;;;;;;5072239;28;20207;-68
2021/12/01 06:14:41;;;;;;;7.17;4.30;;;5.40;99.90;;;;;;5071478;28;20206;-68
2021/12/01 06:17:09;;;;;;;5.30;3.90;;;5.50;99.90;;;;;;5074028;28;20724;-68
2021/12/01 06:19:37;;;;;;;6.07;3.87;;;5.50;99.90;;;;;;5073013;28;20217;-67
2021/12/01 06:22:05;;;;;;;6.40;4.13;;;5.50;99.90;;;;;;5076249;28;20621;-68
2021/12/01 06:24:32;;;;;;;8.30;4.13;;;5.50;99.90;;;;;;5073931;28;20251;-67
2021/12/01 06:26:59;;;;;;;5.03;4.23;;;5.50;99.90;;;;;;5077376;28;20292;-67
2021/12/01 06:29:26;;;;;;;6.23;4.83;;;5.40;99.90;;;;;;5074861;28;20279;-69
2021/12/01 06:31:53;;;;;;;8.50;5.60;;;5.50;99.90;;;;;;5078240;28;20262;-68
2021/12/01 06:34:20;;;;;;;8.47;4.40;;;5.60;99.90;;;;;;5075908;28;20289;-68
2021/12/01 06:36:49;;;;;;;5.47;4.50;;;5.60;99.90;;;;;;5076887;28;20202;-68
2021/12/01 06:39:16;;;;;;;6.30;4.63;;;5.60;99.90;;;;;;5072758;28;20251;-68
2021/12/01 06:41:43;;;;;;;3.77;3.07;;;5.70;99.90;;;;;;5076237;28;20210;-68
2021/12/01 06:44:11;;;;;;;3.67;3.30;;;5.80;99.90;;;;;;5080275;28;20209;-68
2021/12/01 06:46:38;;;;;;;6.20;4.43;;;5.80;99.90;;;;;;5077185;28;20579;-68
2021/12/01 06:49:05;;;;;;;9.57;6.93;;;6.00;99.90;;;;;;5075771;28;20778;-68
2021/12/01 06:51:33;;;;;;;5.83;3.67;;;6.00;99.90;;;;;;5077589;28;20260;-68
2021/12/01 06:54:01;;;;;;;4.13;3.40;;;6.00;99.90;;;;;;5075864;28;20210;-70
2021/12/01 06:56:28;;;;;;;6.73;3.93;;;6.00;99.90;;;;;;5078623;28;20259;-70
2021/12/01 06:58:55;;;;;;;4.20;2.50;;;6.10;99.90;;;;;;5070387;28;20210;-68
2021/12/01 07:01:22;;;;;;;5.97;2.70;;;6.10;99.90;;;;;;5070956;28;20202;-70
2021/12/01 07:03:49;;;;;;;6.93;3.67;;;6.20;99.90;;;;;;5071449;28;20252;-68
2021/12/01 07:06:16;;;;;;;4.10;3.03;;;6.20;99.90;;;;;;5071695;28;20202;-68
2021/12/01 07:08:43;;;;;;;5.13;2.70;;;6.20;99.90;;;;;;5072834;28;20222;-67
2021/12/01 07:11:11;;;;;;;4.63;3.07;;;6.20;99.90;;;;;;5072304;28;20210;-67
2021/12/01 07:13:38;;;;;;;3.90;3.00;;;6.20;99.90;;;;;;5075362;28;20284;-70
2021/12/01 07:16:06;;;;;;;3.93;3.20;;;6.30;99.90;;;;;;5073765;28;20210;-67
2021/12/01 07:18:33;;;;;;;5.40;3.40;;;6.30;99.90;;;;;;5077641;28;20250;-67
2021/12/01 07:21:00;;;;;;;4.53;3.00;;;6.30;99.90;;;;;;5072583;28;20214;-70
2021/12/01 07:23:27;;;;;;;5.37;3.10;;;6.30;99.90;;;;;;5069849;28;20624;-69
2021/12/01 07:25:54;;;;;;;4.43;2.33;;;6.40;99.90;;;;;;5069436;28;20214;-67
2021/12/01 07:28:22;;;;;;;4.70;3.20;;;6.40;99.90;;;;;;5073553;28;20256;-68
2021/12/01 07:30:49;;;;;;;4.27;2.80;;;6.40;99.90;;;;;;5073357;28;20251;-68
2021/12/01 07:33:16;;;;;;;3.53;2.40;;;6.50;99.90;;;;;;5074027;28;20670;-69
2021/12/01 07:35:43;;;;;;;4.43;3.00;;;6.40;99.90;;;;;;5073143;28;20210;-70
2021/12/01 07:38:12;;;;;;;6.13;3.90;;;6.30;99.90;;;;;;5073370;28;20669;-70
2021/12/01 07:40:39;;;;;;;4.10;2.87;;;6.20;99.90;;;;;;5073076;28;20248;-69
2021/12/01 07:43:06;;;;;;;4.30;2.67;;;6.10;99.90;;;;;;5073580;28;20267;-69
2021/12/01 07:45:35;;;;;;;5.63;3.17;;;6.10;99.90;;;;;;5073785;28;20210;-68
2021/12/01 07:48:02;;;;;;;5.53;3.27;;;6.10;99.90;;;;;;5073360;28;20206;-68
2021/12/01 07:50:29;;;;;;;5.40;3.40;;;6.20;99.90;;;;;;5073927;28;20247;-68
2021/12/01 07:52:56;;;;;;;7.30;2.90;;;6.20;99.90;;;;;;5081398;28;20225;-68
2021/12/01 07:55:23;;;;;;;3.30;3.00;;;6.20;99.90;;;;;;5078179;28;20242;-68
2021/12/01 07:57:50;;;;;;;3.50;2.80;;;6.30;99.90;;;;;;5083200;28;20201;-68
2021/12/01 08:00:17;;;;;;;5.13;3.00;;;6.40;99.90;;;;;;5088208;28;20205;-69
2021/12/01 08:02:45;;;;;;;4.77;3.00;;;6.50;99.90;;;;;;5085986;28;20282;-68
2021/12/01 08:05:13;;;;;;;4.63;2.77;;;6.60;99.90;;;;;;5075362;28;20210;-68
2021/12/01 08:07:40;;;;;;;4.10;2.50;;;6.60;99.90;;;;;;5072205;28;20673;-67
2021/12/01 08:10:10;;;;;;;5.07;3.10;;;6.80;99.90;;;;;;5076343;28;20230;-68
2021/12/01 08:12:38;;;;;;;7.10;4.20;;;6.90;99.90;;;;;;5080799;28;20674;-69
2021/12/01 08:15:07;;;;;;;4.13;2.87;;;6.90;99.90;;;;;;5081723;28;20206;-68
2021/12/01 08:17:35;;;;;;;6.63;2.67;;;7.00;99.90;;;;;;5086965;28;20619;-68
2021/12/01 08:20:05;;;;;;;3.10;2.57;;;7.00;99.90;;;;;;5078383;28;20206;-67
2021/12/01 08:22:32;;;;;;;4.60;3.53;;;7.10;99.90;;;;;;5070421;28;20206;-66
2021/12/01 08:24:59;;;;;;;4.13;3.00;;;7.20;99.90;;;;;;5072111;28;20217;-66
2021/12/01 08:27:26;;;;;;;9.87;4.37;;;7.40;99.90;;;;;;5073218;28;20259;-67
2021/12/01 08:29:53;;;;;;;15.40;8.93;;;7.70;99.90;;;;;;5074203;28;20234;-67
2021/12/01 08:32:21;;;;;;;6.37;4.17;;;7.90;99.90;;;;;;5072378;28;20623;-67
2021/12/01 08:34:49;;;;;;;7.07;4.97;;;8.10;99.90;;;;;;5071868;28;20630;-67
2021/12/01 08:37:20;;;;;;;5.47;4.30;;;8.10;99.90;;;;;;5070643;28;20206;-66
2021/12/01 08:39:48;;;;;;;4.40;3.43;;;8.00;99.90;;;;;;5074736;28;20539;-69
2021/12/01 08:42:15;;;;;;;6.00;3.93;;;8.10;99.90;;;;;;5072048;28;20202;-68
2021/12/01 08:44:45;;;;;;;4.93;3.87;;;8.20;99.90;;;;;;5064512;28;20218;-71
2021/12/01 08:47:12;;;;;;;5.50;3.30;;;8.20;99.90;;;;;;5072274;28;20202;-69
2021/12/01 08:49:40;;;;;;;7.10;4.43;;;8.20;99.90;;;;;;5070837;28;20661;-69
2021/12/01 08:52:07;;;;;;;5.40;4.07;;;8.10;99.90;;;;;;5088616;28;20296;-68
2021/12/01 08:54:36;;;;;;;3.97;3.37;;;8.10;99.90;;;;;;5076793;28;20263;-69
2021/12/01 08:57:04;;;;;;;3.23;2.40;;;8.10;99.90;;;;;;5062411;28;20214;-68
2021/12/01 08:59:32;;;;;;;3.43;3.13;;;8.00;99.90;;;;;;5072572;28;20632;-68
2021/12/01 09:02:00;;;;;;;4.13;3.03;;;7.90;99.90;;;;;;5072387;28;20214;-68
2021/12/01 09:04:27;;;;;;;5.13;3.07;;;7.90;99.90;;;;;;5072604;28;20221;-68
2021/12/01 09:06:54;;;;;;;5.90;3.80;;;7.90;99.90;;;;;;5073096;28;20214;-69
2021/12/01 09:09:21;;;;;;;3.10;2.43;;;8.00;99.90;;;;;;5080319;28;20229;-68
2021/12/01 09:11:51;;;;;;;3.97;2.27;;;8.10;99.90;;;;;;5086272;28;20255;-68
2021/12/01 09:14:19;;;;;;;4.00;2.07;;;8.40;99.90;;;;;;5086927;28;20227;-68
2021/12/01 09:16:47;;;;;;;6.53;4.07;;;8.60;99.90;;;;;;5088437;28;20209;-68
2021/12/01 09:19:15;;;;;;;5.07;3.67;;;8.80;99.90;;;;;;5087118;28;20255;-69
2021/12/01 09:21:42;;;;;;;7.23;3.70;;;9.20;99.90;;;;;;5081449;28;20735;-68
2021/12/01 09:24:09;;;;;;;5.47;4.03;;;9.30;99.90;;;;;;5077609;28;20202;-68
2021/12/01 09:26:37;;;;;;;8.23;5.07;;;9.40;99.90;;;;;;5081723;28;20264;-67
2021/12/01 09:29:05;;;;;;;6.27;4.40;;;9.50;99.90;;;;;;5078316;28;20229;-68
2021/12/01 09:31:33;;;;;;;7.03;3.87;;;9.50;99.90;;;;;;5071074;28;20665;-68
2021/12/01 09:34:00;;;;;;;8.23;4.43;;;9.50;99.90;;;;;;5082037;28;20251;-69
2021/12/01 09:36:27;;;;;;;7.40;4.30;;;9.50;99.90;;;;;;5070333;28;20263;-68
2021/12/01 09:38:54;;;;;;;5.87;3.40;;;9.50;99.90;;;;;;5071571;28;20210;-68
2021/12/01 09:41:21;;;;;;;9.67;3.60;;;10.00;99.90;;;;;;5067826;28;20681;-68
2021/12/01 09:43:48;;;;;;;6.87;2.60;;;10.00;99.90;;;;;;5069282;28;20272;-68
2021/12/01 09:46:16;;;;;;;8.23;3.87;;;10.20;99.90;;;;;;5070917;28;20639;-69
2021/12/01 09:48:44;;;;;;;5.93;3.77;;;10.40;99.90;;;;;;5068571;28;20215;-69
2021/12/01 09:51:12;;;;;;;6.60;3.87;;;10.60;99.90;;;;;;5069496;28;20206;-69
2021/12/01 09:53:39;;;;;;;4.97;3.07;;;11.00;99.90;;;;;;5070086;28;20255;-69
2021/12/01 09:56:06;;;;;;;6.67;4.30;;;11.10;99.90;;;;;;5070702;28;20206;-69
2021/12/01 09:58:33;;;;;;;5.57;4.23;;;11.10;99.90;;;;;;5075762;28;20248;-68
2021/12/01 10:01:03;;;;;;;8.50;3.93;;;11.30;99.90;;;;;;5070758;28;20599;-68
2021/12/01 10:03:32;;;;;;;4.93;3.00;;;11.40;99.90;;;;;;5070992;28;20198;-68
2021/12/01 10:06:04;;;;;;;4.30;2.23;;;11.30;99.90;;;;;;5070780;28;20202;-68
2021/12/01 10:08:34;;;;;;;3.63;2.03;;;11.20;99.90;;;;;;5070820;28;20605;-68
2021/12/01 10:11:06;;;;;;;3.50;2.03;;;11.10;99.90;;;;;;5070052;28;20234;-68
2021/12/01 10:13:34;;;;;;;2.93;1.97;;;11.10;99.90;;;;;;5070666;28;20206;-68
2021/12/01 10:16:05;;;;;;;2.47;1.93;;;11.30;99.90;;;;;;5066066;28;20217;-69
2021/12/01 10:18:39;;;;;;;3.20;2.10;;;11.20;99.90;;;;;;5067935;28;20206;-69
2021/12/01 10:21:09;;;;;;;2.50;2.07;;;11.20;99.90;;;;;;5077727;28;20209;-69
2021/12/01 10:23:37;;;;;;;4.70;2.47;;;11.10;99.90;;;;;;5074636;28;20206;-68
2021/12/01 10:26:09;;;;;;;3.30;2.13;;;11.10;99.90;;;;;;5072763;28;20206;-70
2021/12/01 10:28:38;;;;;;;3.83;2.33;;;11.10;99.90;;;;;;5072197;28;20213;-69
2021/12/01 10:31:06;;;;;;;5.13;3.53;;;11.00;99.90;;;;;;5062150;28;20767;-71
2021/12/01 10:33:34;;;;;;;3.07;1.90;;;10.90;99.90;;;;;;5068061;28;20210;-69
2021/12/01 10:36:07;;;;;;;2.83;1.50;;;11.00;99.90;;;;;;5065473;28;20674;-70
2021/12/01 10:38:38;;;;;;;1.67;1.23;;;11.00;99.90;;;;;;5065164;28;20206;-69
2021/12/01 10:41:07;;;;;;;2.00;1.80;;;10.90;99.90;;;;;;5066163;28;20635;-70
2021/12/01 10:43:40;;;;;;;1.73;1.30;;;10.90;99.90;;;;;;5068758;28;20279;-68
2021/12/01 10:46:09;;;;;;;1.67;0.93;;;10.90;99.90;;;;;;5073542;28;20590;-69
2021/12/01 10:48:37;;;;;;;1.50;1.20;;;11.00;99.90;;;;;;5064284;28;20203;-67
2021/12/01 10:51:05;;;;;;;4.67;1.30;;;11.10;99.90;;;;;;5071883;28;20283;-69
2021/12/01 10:53:33;;;;;;;3.33;1.40;;;11.20;99.90;;;;;;5075544;28;20202;-69
2021/12/01 10:56:03;;;;;;;1.93;1.20;;;11.20;99.90;;;;;;5073485;28;20263;-69
2021/12/01 10:58:36;;;;;;;2.03;1.33;;;11.20;99.90;;;;;;5067647;28;20201;-69
2021/12/01 11:01:06;;;;;;;2.33;1.30;;;11.30;99.90;;;;;;5074491;28;20222;-70
2021/12/01 11:03:35;;;;;;;3.03;1.50;;;11.40;99.90;;;;;;5069453;28;20211;-69
2021/12/01 11:06:12;;;;;;;1.73;1.13;;;11.50;99.90;;;;;;5077477;28;20205;-68
2021/12/01 11:08:42;;;;;;;6.17;1.57;;;11.60;99.90;;;;;;5085324;28;20259;-69
2021/12/01 11:11:11;;;;;;;2.07;1.03;;;11.70;99.90;;;;;;5079387;28;20282;-69
2021/12/01 11:13:41;;;;;;;2.00;1.10;;;11.80;99.90;;;;;;5080182;28;20616;-69
2021/12/01 11:16:10;;;;;;;3.73;2.47;;;11.90;99.90;;;;;;5081435;28;20678;-69
2021/12/01 11:18:39;;;;;;;2.77;1.27;;;11.80;99.90;;;;;;5085852;28;20217;-70
2021/12/01 11:21:11;;;;;;;4.47;2.23;;;11.80;99.90;;;;;;5070817;28;20202;-69
2021/12/01 11:23:40;;;;;;;2.03;1.43;;;11.90;99.90;;;;;;5075305;28;20268;-68
2021/12/01 11:26:10;;;;;;;2.70;1.83;;;11.80;99.90;;;;;;5073504;28;20750;-68
2021/12/01 11:28:39;;;;;;;3.57;2.27;;;11.80;99.90;;;;;;5073474;28;20260;-68
2021/12/01 11:31:09;;;;;;;3.00;1.50;;;11.80;99.90;;;;;;5069245;28;20234;-68
2021/12/01 11:33:37;;;;;;;2.33;1.47;;;11.90;99.90;;;;;;5073897;28;20206;-68
2021/12/01 11:36:07;;;;;;;2.40;1.40;;;11.80;99.90;;;;;;5073904;28;20275;-68
2021/12/01 11:38:36;;;;;;;1.37;1.17;;;11.70;99.90;;;;;;5074376;28;20233;-68
2021/12/01 11:41:05;;;;;;;2.50;2.10;;;11.70;99.90;;;;;;5072445;28;20202;-68
2021/12/01 11:43:34;;;;;;;2.20;1.30;;;11.80;99.90;;;;;;5072915;28;20206;-68
2021/12/01 11:46:01;;;;;;;3.13;1.43;;;11.80;99.90;;;;;;5072494;28;20210;-68
2021/12/01 11:48:30;;;;;;;2.60;1.60;;;11.90;99.90;;;;;;5073199;28;20762;-68
2021/12/01 11:51:05;;;;;;;2.27;1.40;;;11.80;99.90;;;;;;5072910;28;20637;-68
2021/12/01 11:53:37;;;;;;;2.70;1.50;;;11.80;99.90;;;;;;5071326;28;20905;-69
2021/12/01 11:56:06;;;;;;;3.50;2.03;;;11.80;99.90;;;;;;5066724;28;20211;-70
2021/12/01 11:59:02;;;;;;;1.97;1.50;;;11.70;99.90;;;;;;5073357;28;20264;-69
2021/12/01 12:01:59;;;;;;;1.70;1.13;;;11.70;99.90;;;;;;5069979;28;20217;-69
2021/12/01 12:04:42;;;;;;;0.77;0.60;;;11.60;99.90;;;;;;5006565;28;20258;-68
2021/12/01 12:07:12;;;;;;;1.13;1.03;;;11.60;99.90;;;;;;5067368;28;20213;-68
2021/12/01 12:09:41;;;;;;;1.10;0.90;;;11.60;99.90;;;;;;5077761;28;20233;-70
2021/12/01 12:12:14;;;;;;;0.93;0.70;;;11.60;99.90;;;;;;5077328;28;20198;-69
2021/12/01 12:14:52;;;;;;;0.93;0.70;;;11.60;99.90;;;;;;5074911;28;20677;-70
2021/12/01 12:17:21;;;;;;;2.13;0.70;;;11.60;99.90;;;;;;5079736;28;20255;-69
2021/12/01 12:20:00;;;;;;;1.00;0.57;;;11.60;99.90;;;;;;5077532;28;20210;-69
2021/12/01 12:22:34;;;;;;;1.37;0.90;;;11.60;99.90;;;;;;5070269;28;20206;-69
2021/12/01 12:25:05;;;;;;;1.07;0.70;;;11.50;99.90;;;;;;5073582;28;20202;-69
2021/12/01 12:27:41;;;;;;;1.27;0.70;;;11.40;99.90;;;;;;5087582;28;20198;-70
2021/12/01 12:30:14;;;;;;;1.47;0.70;;;11.30;99.90;;;;;;5083193;28;20298;-71
2021/12/01 12:32:43;;;;;;;1.60;0.90;;;11.40;99.90;;;;;;5077921;28;20202;-69
2021/12/01 12:35:12;;;;;;;1.10;0.87;;;11.30;99.90;;;;;;5076531;28;20285;-71
2021/12/01 12:37:40;;;;;;;0.90;0.53;;;11.30;99.90;;;;;;5078034;28;20685;-70
2021/12/01 12:40:13;;;;;;;2.53;0.80;;;11.30;99.90;;;;;;5079419;28;20210;-71
2021/12/01 12:43:11;;;;;;;2.70;0.83;;;11.40;99.90;;;;;;5082969;28;20210;-70
2021/12/01 12:45:40;;;;;;;1.23;0.90;;;11.40;1.00;;;;;;5070688;28;20211;-72
2021/12/01 12:48:28;;;;;;;0.70;0.40;;;11.20;1.00;;;;;;5069451;28;20206;-71
2021/12/01 12:51:31;;;;;;;1.03;0.90;;;11.10;1.00;;;;;;5074179;28;20237;-71
2021/12/01 12:54:19;;;;;;;1.50;0.50;;;10.90;1.00;;;;;;5019599;28;20691;-71
2021/12/01 12:56:51;;;;;;;0.93;0.40;;;10.80;1.00;;;;;;5070112;28;20229;-72
2021/12/01 12:59:24;;;;;;;1.07;0.50;;;10.70;1.00;;;;;;5076162;28;20217;-72
2021/12/01 13:01:53;;;;;;;1.03;0.60;;;10.70;1.00;;;;;;5078050;28;20202;-72
2021/12/01 13:05:01;;;;;;;0.77;0.60;;;10.70;1.00;;;;;;5071627;28;20232;-71
2021/12/01 13:07:39;;;;;;;1.37;0.87;;;10.70;1.00;;;;;;5067332;28;20643;-72